createdAt,value
2023-04-27T00:00:17.950Z,500.00
2023-04-27T00:01:17.946Z,500.00
2023-04-27T00:02:17.998Z,500.00
2023-04-27T00:03:18.212Z,439.00
2023-04-27T00:04:18.109Z,409.00
2023-04-27T00:05:17.959Z,400.00
2023-04-27T00:06:18.015Z,400.00
2023-04-27T00:07:17.924Z,419.00
2023-04-27T00:08:17.922Z,437.00
2023-04-27T00:09:17.921Z,463.00
2023-04-27T00:10:17.912Z,497.00
2023-04-27T00:11:17.909Z,500.00
2023-04-27T00:12:17.913Z,500.00
2023-04-27T00:13:17.926Z,501.00
2023-04-27T00:14:17.894Z,502.00
2023-04-27T00:15:17.898Z,501.00
2023-04-27T00:16:17.910Z,500.00
2023-04-27T00:17:17.888Z,501.00
2023-04-27T00:18:17.901Z,501.00
2023-04-27T00:19:17.936Z,503.00
2023-04-27T00:20:17.891Z,500.00
2023-04-27T00:21:17.888Z,500.00
2023-04-27T00:22:17.910Z,502.00
2023-04-27T00:23:17.905Z,500.00
2023-04-27T00:24:17.912Z,500.00
2023-04-27T00:25:17.902Z,500.00
2023-04-27T00:26:17.882Z,500.00
2023-04-27T00:27:17.883Z,500.00
2023-04-27T00:28:17.901Z,501.00
2023-04-27T00:29:17.898Z,501.00
2023-04-27T00:30:17.869Z,502.00
2023-04-27T00:31:17.900Z,502.00
2023-04-27T00:32:17.859Z,500.00
2023-04-27T00:33:17.872Z,501.00
2023-04-27T00:34:17.876Z,501.00
2023-04-27T00:35:17.879Z,500.00
2023-04-27T00:36:17.897Z,504.00
2023-04-27T00:37:17.902Z,503.00
2023-04-27T00:38:17.910Z,503.00
2023-04-27T00:39:17.927Z,503.00
2023-04-27T00:40:17.975Z,504.00
2023-04-27T00:41:17.957Z,501.00
2023-04-27T00:42:17.973Z,502.00
2023-04-27T00:43:17.983Z,502.00
2023-04-27T00:44:17.995Z,500.00
2023-04-27T00:45:18.033Z,505.00
2023-04-27T00:46:18.018Z,500.00
2023-04-27T00:47:18.033Z,500.00
2023-04-27T00:48:18.038Z,500.00
2023-04-27T00:49:18.047Z,503.00
2023-04-27T00:50:18.047Z,502.00
2023-04-27T00:51:18.054Z,500.00
2023-04-27T00:52:18.062Z,501.00
2023-04-27T00:53:18.084Z,503.00
2023-04-27T00:54:18.096Z,504.00
2023-04-27T00:55:18.103Z,503.00
2023-04-27T00:56:18.120Z,501.00
2023-04-27T00:57:18.117Z,502.00
2023-04-27T00:58:18.136Z,503.00
2023-04-27T00:59:18.166Z,501.00
2023-04-27T01:00:18.175Z,502.00
2023-04-27T01:01:18.260Z,502.00
2023-04-27T01:02:18.265Z,504.00
2023-04-27T01:03:18.323Z,502.00
2023-04-27T01:04:18.569Z,502.00
2023-04-27T01:05:18.251Z,502.00
2023-04-27T01:06:18.258Z,500.00
2023-04-27T01:07:18.269Z,504.00
2023-04-27T01:08:18.286Z,503.00
2023-04-27T01:09:18.304Z,502.00
2023-04-27T01:10:18.350Z,502.00
2023-04-27T01:11:18.339Z,502.00
2023-04-27T01:12:18.359Z,502.00
2023-04-27T01:13:18.355Z,502.00
2023-04-27T01:14:18.362Z,500.00
2023-04-27T01:15:18.375Z,500.00
2023-04-27T01:16:18.460Z,502.00
2023-04-27T01:17:18.424Z,500.00
2023-04-27T01:18:18.442Z,504.00
2023-04-27T01:19:18.435Z,504.00
2023-04-27T01:20:18.667Z,504.00
2023-04-27T01:21:18.471Z,502.00
2023-04-27T01:22:18.495Z,503.00
2023-04-27T01:23:21.159Z,503.00
2023-04-27T01:24:18.487Z,506.00
2023-04-27T01:25:18.489Z,506.00
2023-04-27T01:26:18.492Z,502.00
2023-04-27T01:27:18.485Z,502.00
2023-04-27T01:28:18.485Z,501.00
2023-04-27T01:29:18.476Z,501.00
2023-04-27T01:30:18.475Z,504.00
2023-04-27T01:31:18.517Z,504.00
2023-04-27T01:32:18.464Z,503.00
2023-04-27T01:33:18.500Z,501.00
2023-04-27T01:34:18.462Z,502.00
2023-04-27T01:35:18.468Z,503.00
2023-04-27T01:36:18.458Z,503.00
2023-04-27T01:37:18.454Z,503.00
2023-04-27T01:38:18.453Z,505.00
2023-04-27T01:39:25.163Z,502.00
2023-04-27T01:40:18.446Z,503.00
2023-04-27T01:41:18.442Z,503.00
2023-04-27T01:42:18.457Z,504.00
2023-04-27T01:43:18.422Z,504.00
2023-04-27T01:44:18.412Z,506.00
2023-04-27T01:45:18.426Z,505.00
2023-04-27T01:46:18.471Z,502.00
2023-04-27T01:47:25.206Z,501.00
2023-04-27T01:48:25.339Z,502.00
2023-04-27T01:49:18.392Z,502.00
2023-04-27T01:50:18.386Z,503.00
2023-04-27T01:51:18.393Z,505.00
2023-04-27T01:52:18.407Z,504.00
2023-04-27T01:53:18.681Z,507.00
2023-04-27T01:54:18.357Z,504.00
2023-04-27T01:55:18.365Z,504.00
2023-04-27T01:56:18.364Z,500.00
2023-04-27T01:57:18.374Z,501.00
2023-04-27T01:58:18.348Z,502.00
2023-04-27T01:59:18.340Z,502.00
2023-04-27T02:00:18.337Z,504.00
2023-04-27T02:01:18.389Z,506.00
2023-04-27T02:02:18.370Z,502.00
2023-04-27T02:04:17.542Z,502.00
2023-04-27T02:05:18.327Z,501.00
2023-04-27T02:06:18.314Z,502.00
2023-04-27T02:07:18.348Z,504.00
2023-04-27T02:08:18.291Z,505.00
2023-04-27T02:09:18.270Z,500.00
2023-04-27T02:10:18.281Z,504.00
2023-04-27T02:11:18.254Z,502.00
2023-04-27T02:12:18.270Z,506.00
2023-04-27T02:13:18.242Z,502.00
2023-04-27T02:14:18.241Z,502.00
2023-04-27T02:15:18.240Z,505.00
2023-04-27T02:16:18.378Z,503.00
2023-04-27T02:17:18.334Z,500.00
2023-04-27T02:18:18.248Z,502.00
2023-04-27T02:19:18.219Z,503.00
2023-04-27T02:20:18.271Z,502.00
2023-04-27T02:21:18.245Z,504.00
2023-04-27T02:22:18.259Z,506.00
2023-04-27T02:23:18.281Z,501.00
2023-04-27T02:24:18.286Z,501.00
2023-04-27T02:25:18.294Z,501.00
2023-04-27T02:26:18.306Z,502.00
2023-04-27T02:27:18.327Z,501.00
2023-04-27T02:28:18.353Z,502.00
2023-04-27T02:29:18.356Z,502.00
2023-04-27T02:30:18.372Z,504.00
2023-04-27T02:31:18.422Z,504.00
2023-04-27T02:32:19.193Z,501.00
2023-04-27T02:33:18.409Z,503.00
2023-04-27T02:34:18.429Z,502.00
2023-04-27T02:35:18.695Z,504.00
2023-04-27T02:36:18.603Z,502.00
2023-04-27T02:37:18.476Z,501.00
2023-04-27T02:38:18.499Z,502.00
2023-04-27T02:39:18.500Z,500.00
2023-04-27T02:40:18.516Z,501.00
2023-04-27T02:41:18.537Z,504.00
2023-04-27T02:42:18.555Z,502.00
2023-04-27T02:43:18.568Z,502.00
2023-04-27T02:44:18.589Z,502.00
2023-04-27T02:45:18.603Z,503.00
2023-04-27T02:46:19.216Z,503.00
2023-04-27T02:47:18.610Z,502.00
2023-04-27T02:48:18.633Z,502.00
2023-04-27T02:49:25.188Z,502.00
2023-04-27T02:50:18.697Z,503.00
2023-04-27T02:51:18.619Z,503.00
2023-04-27T02:52:18.633Z,503.00
2023-04-27T02:53:18.620Z,503.00
2023-04-27T02:54:18.594Z,504.00
2023-04-27T02:55:18.587Z,500.00
2023-04-27T02:56:18.582Z,503.00
2023-04-27T02:57:18.568Z,502.00
2023-04-27T02:58:18.558Z,503.00
2023-04-27T02:59:18.550Z,505.00
2023-04-27T03:00:18.544Z,503.00
2023-04-27T03:01:18.606Z,502.00
2023-04-27T03:02:18.600Z,503.00
2023-04-27T03:03:18.694Z,501.00
2023-04-27T03:04:18.710Z,500.00
2023-04-27T03:05:18.501Z,500.00
2023-04-27T03:06:18.490Z,504.00
2023-04-27T03:07:18.486Z,500.00
2023-04-27T03:08:18.523Z,506.00
2023-04-27T03:09:18.481Z,502.00
2023-04-27T03:10:19.191Z,502.00
2023-04-27T03:11:18.450Z,504.00
2023-04-27T03:12:18.597Z,505.00
2023-04-27T03:13:18.441Z,502.00
2023-04-27T03:14:18.466Z,504.00
2023-04-27T03:15:18.413Z,504.00
2023-04-27T03:16:18.428Z,506.00
2023-04-27T03:17:18.400Z,506.00
2023-04-27T03:18:18.402Z,503.00
2023-04-27T03:19:18.406Z,504.00
2023-04-27T03:20:18.395Z,503.00
2023-04-27T03:21:18.382Z,505.00
2023-04-27T03:22:18.374Z,503.00
2023-04-27T03:23:18.378Z,501.00
2023-04-27T03:24:18.402Z,500.00
2023-04-27T03:25:18.362Z,503.00
2023-04-27T03:26:18.354Z,502.00
2023-04-27T03:27:18.354Z,503.00
2023-04-27T03:28:18.343Z,501.00
2023-04-27T03:29:18.342Z,503.00
2023-04-27T03:30:18.326Z,504.00
2023-04-27T03:31:18.327Z,504.00
2023-04-27T03:32:18.323Z,503.00
2023-04-27T03:33:18.317Z,504.00
2023-04-27T03:34:18.313Z,507.00
2023-04-27T03:35:18.300Z,503.00
2023-04-27T03:36:18.288Z,502.00
2023-04-27T03:37:18.283Z,505.00
2023-04-27T03:38:18.279Z,505.00
2023-04-27T03:39:18.267Z,505.00
2023-04-27T03:40:18.286Z,508.00
2023-04-27T03:41:18.255Z,503.00
2023-04-27T03:42:18.253Z,503.00
2023-04-27T03:43:18.274Z,504.00
2023-04-27T03:44:18.276Z,503.00
2023-04-27T03:45:18.285Z,505.00
2023-04-27T03:46:18.341Z,502.00
2023-04-27T03:47:18.314Z,501.00
2023-04-27T03:48:18.337Z,500.00
2023-04-27T03:49:18.344Z,502.00
2023-04-27T03:50:18.358Z,500.00
2023-04-27T03:51:18.402Z,501.00
2023-04-27T03:52:18.367Z,502.00
2023-04-27T03:53:18.389Z,501.00
2023-04-27T03:54:18.394Z,503.00
2023-04-27T03:55:18.412Z,502.00
2023-04-27T03:56:18.440Z,501.00
2023-04-27T03:57:18.428Z,502.00
2023-04-27T03:58:18.434Z,500.00
2023-04-27T03:59:18.461Z,503.00
2023-04-27T04:00:18.483Z,503.00
2023-04-27T04:01:18.453Z,503.00
2023-04-27T04:02:18.562Z,503.00
2023-04-27T04:03:18.641Z,504.00
2023-04-27T04:04:18.627Z,503.00
2023-04-27T04:05:18.595Z,503.00
2023-04-27T04:06:18.524Z,502.00
2023-04-27T04:07:18.520Z,503.00
2023-04-27T04:08:18.526Z,503.00
2023-04-27T04:09:18.538Z,503.00
2023-04-27T04:10:18.561Z,504.00
2023-04-27T04:11:18.562Z,500.00
2023-04-27T04:12:19.264Z,503.00
2023-04-27T04:13:19.226Z,503.00
2023-04-27T04:14:18.601Z,503.00
2023-04-27T04:15:18.620Z,500.00
2023-04-27T04:16:18.665Z,503.00
2023-04-27T04:17:25.226Z,504.00
2023-04-27T04:18:18.740Z,505.00
2023-04-27T04:19:20.698Z,506.00
2023-04-27T04:20:18.614Z,505.00
2023-04-27T04:21:18.604Z,506.00
2023-04-27T04:22:18.601Z,506.00
2023-04-27T04:23:18.596Z,507.00
2023-04-27T04:24:18.591Z,507.00
2023-04-27T04:25:18.599Z,504.00
2023-04-27T04:26:18.598Z,505.00
2023-04-27T04:27:18.597Z,507.00
2023-04-27T04:28:18.601Z,505.00
2023-04-27T04:29:18.564Z,505.00
2023-04-27T04:30:18.574Z,504.00
2023-04-27T04:31:18.582Z,502.00
2023-04-27T04:32:18.544Z,506.00
2023-04-27T04:33:18.545Z,504.00
2023-04-27T04:34:18.534Z,503.00
2023-04-27T04:35:18.527Z,503.00
2023-04-27T04:36:18.548Z,505.00
2023-04-27T04:37:18.516Z,503.00
2023-04-27T04:38:33.240Z,503.00
2023-04-27T04:39:36.532Z,500.00
2023-04-27T04:40:37.624Z,500.00
2023-04-27T04:41:37.624Z,500.00
2023-04-27T04:42:37.645Z,500.00
2023-04-27T04:43:37.634Z,500.00
2023-04-27T04:44:38.052Z,500.00
2023-04-27T04:45:37.611Z,503.00
2023-04-27T04:46:37.798Z,503.00
2023-04-27T04:47:37.627Z,503.00
2023-04-27T04:48:37.613Z,500.00
2023-04-27T04:49:37.620Z,502.00
2023-04-27T04:50:37.605Z,502.00
2023-04-27T04:51:37.623Z,504.00
2023-04-27T04:53:55.513Z,500.00
2023-04-27T04:54:56.615Z,500.00
2023-04-27T04:55:56.607Z,500.00
2023-04-27T04:56:56.607Z,500.00
2023-04-27T04:57:56.617Z,500.00
2023-04-27T04:58:56.642Z,500.00
2023-04-27T04:59:56.626Z,500.00
2023-04-27T05:00:56.631Z,502.00
2023-04-27T05:01:56.732Z,500.00
2023-04-27T05:02:56.827Z,500.00
2023-04-27T05:03:56.767Z,502.00
2023-04-27T05:04:56.821Z,504.00
2023-04-27T05:05:56.621Z,500.00
2023-04-27T05:06:56.616Z,505.00
2023-04-27T05:07:56.617Z,504.00
2023-04-27T05:08:56.667Z,503.00
2023-04-27T05:09:56.617Z,501.00
2023-04-27T05:10:56.619Z,502.00
2023-04-27T05:11:56.629Z,503.00
2023-04-27T05:12:56.641Z,501.00
2023-04-27T05:13:56.668Z,503.00
2023-04-27T05:14:56.742Z,501.00
2023-04-27T05:15:56.709Z,500.00
2023-04-27T05:16:56.635Z,503.00
2023-04-27T05:17:56.703Z,503.00
2023-04-27T05:18:56.650Z,501.00
2023-04-27T05:19:56.679Z,501.00
2023-04-27T05:20:57.183Z,501.00
2023-04-27T05:21:57.171Z,510.00
2023-04-27T05:22:56.667Z,511.00
2023-04-27T05:23:56.817Z,537.00
2023-04-27T05:24:57.575Z,536.00
2023-04-27T05:25:56.664Z,552.00
2023-04-27T05:26:57.669Z,589.00
2023-04-27T05:27:56.676Z,583.00
2023-04-27T05:28:56.665Z,580.00
2023-04-27T05:29:56.667Z,591.00
2023-04-27T05:30:56.697Z,598.00
2023-04-27T05:31:56.782Z,621.00
2023-04-27T05:32:56.687Z,620.00
2023-04-27T05:33:56.670Z,618.00
2023-04-27T05:34:56.663Z,621.00
2023-04-27T05:35:56.702Z,621.00
2023-04-27T05:36:56.702Z,627.00
2023-04-27T05:37:56.756Z,633.00
2023-04-27T05:38:57.204Z,629.00
2023-04-27T05:39:57.192Z,626.00
2023-04-27T05:40:57.190Z,618.00
2023-04-27T05:41:57.188Z,621.00
2023-04-27T05:42:57.684Z,628.00
2023-04-27T05:43:57.196Z,634.00
2023-04-27T05:44:57.181Z,648.00
2023-04-27T05:45:58.126Z,639.00
2023-04-27T05:46:57.268Z,642.00
2023-04-27T05:47:57.387Z,641.00
2023-04-27T05:48:57.338Z,652.00
2023-04-27T05:49:57.698Z,649.00
2023-04-27T05:50:57.437Z,645.00
2023-04-27T05:51:57.490Z,668.00
2023-04-27T05:52:57.695Z,718.00
2023-04-27T05:53:58.177Z,716.00
2023-04-27T05:54:57.627Z,723.00
2023-04-27T05:55:57.695Z,729.00
2023-04-27T05:56:58.734Z,759.00
2023-04-27T05:58:07.666Z,765.00
2023-04-27T05:58:59.088Z,767.00
2023-04-27T05:59:58.028Z,768.00
2023-04-27T06:00:58.378Z,775.00
2023-04-27T06:02:13.752Z,785.00
2023-04-27T06:03:01.580Z,769.00
2023-04-27T06:03:58.050Z,771.00
2023-04-27T06:04:58.082Z,784.00
2023-04-27T06:05:59.158Z,813.00
2023-04-27T06:06:58.070Z,865.00
2023-04-27T06:07:58.212Z,927.00
2023-04-27T06:08:58.083Z,909.00
2023-04-27T06:09:58.175Z,962.00
2023-04-27T06:10:58.206Z,973.00
2023-04-27T06:11:58.127Z,994.00
2023-04-27T06:12:58.197Z,1000.00
2023-04-27T06:13:58.075Z,1021.00
2023-04-27T06:14:58.079Z,1063.00
2023-04-27T06:15:58.245Z,1067.00
2023-04-27T06:16:58.102Z,1072.00
2023-04-27T06:17:58.159Z,1097.00
2023-04-27T06:18:58.138Z,1140.00
2023-04-27T06:19:58.080Z,1134.00
2023-04-27T06:20:58.197Z,1142.00
2023-04-27T06:21:58.110Z,1144.00
2023-04-27T06:22:58.125Z,1153.00
2023-04-27T06:23:58.121Z,1157.00
2023-04-27T06:24:58.126Z,1168.00
2023-04-27T06:25:58.127Z,1170.00
2023-04-27T06:26:58.126Z,1198.00
2023-04-27T06:27:58.135Z,1203.00
2023-04-27T06:28:58.148Z,1205.00
2023-04-27T06:29:58.137Z,1230.00
2023-04-27T06:30:58.156Z,1258.00
2023-04-27T06:31:58.190Z,1267.00
2023-04-27T06:32:58.225Z,1244.00
2023-04-27T06:33:58.210Z,1255.00
2023-04-27T06:34:58.192Z,1263.00
2023-04-27T06:35:58.708Z,1264.00
2023-04-27T06:36:58.193Z,1267.00
2023-04-27T06:37:58.193Z,1279.00
2023-04-27T06:38:58.201Z,1317.00
2023-04-27T06:39:58.193Z,1295.00
2023-04-27T06:40:58.700Z,1305.00
2023-04-27T06:41:58.202Z,1316.00
2023-04-27T06:42:58.224Z,931.00
2023-04-27T06:43:59.164Z,813.00
2023-04-27T06:44:58.704Z,745.00
2023-04-27T06:45:58.749Z,732.00
2023-04-27T06:46:58.378Z,644.00
2023-04-27T06:47:58.474Z,627.00
2023-04-27T06:48:58.547Z,603.00
2023-04-27T06:49:58.758Z,579.00
2023-04-27T06:50:58.627Z,558.00
2023-04-27T06:51:58.689Z,539.00
2023-04-27T06:52:58.714Z,511.00
2023-04-27T06:53:58.752Z,500.00
2023-04-27T06:54:59.784Z,500.00
2023-04-27T06:55:59.221Z,500.00
2023-04-27T06:56:58.942Z,500.00
2023-04-27T06:57:59.207Z,506.00
2023-04-27T06:59:00.087Z,503.00
2023-04-27T06:59:59.198Z,518.00
2023-04-27T07:00:59.486Z,517.00
2023-04-27T07:02:02.646Z,521.00
2023-04-27T07:02:59.734Z,521.00
2023-04-27T07:03:59.516Z,513.00
2023-04-27T07:04:59.561Z,505.00
2023-04-27T07:05:59.502Z,506.00
2023-04-27T07:06:59.505Z,488.00
2023-04-27T07:08:01.564Z,506.00
2023-04-27T07:08:59.583Z,507.00
2023-04-27T07:09:59.815Z,511.00
2023-04-27T07:10:59.680Z,521.00
2023-04-27T07:12:00.700Z,554.00
2023-04-27T07:12:59.813Z,613.00
2023-04-27T07:14:00.702Z,625.00
2023-04-27T07:14:59.897Z,639.00
2023-04-27T07:15:59.923Z,654.00
2023-04-27T07:17:00.038Z,698.00
2023-04-27T07:18:00.051Z,714.00
2023-04-27T07:19:00.097Z,737.00
2023-04-27T07:20:00.140Z,792.00
2023-04-27T07:21:00.220Z,803.00
2023-04-27T07:22:00.157Z,818.00
2023-04-27T07:23:00.153Z,855.00
2023-04-27T07:24:00.201Z,871.00
2023-04-27T07:25:00.215Z,906.00
2023-04-27T07:26:00.258Z,931.00
2023-04-27T07:27:03.534Z,959.00
2023-04-27T07:28:00.755Z,961.00
2023-04-27T07:29:04.176Z,967.00
2023-04-27T07:30:00.270Z,964.00
2023-04-27T07:31:01.113Z,976.00
2023-04-27T07:32:00.278Z,1001.00
2023-04-27T07:33:00.349Z,1042.00
2023-04-27T07:34:00.605Z,1134.00
2023-04-27T07:35:00.191Z,1135.00
2023-04-27T07:36:00.264Z,1172.00
2023-04-27T07:37:00.181Z,1208.00
2023-04-27T07:38:00.160Z,1227.00
2023-04-27T07:39:00.146Z,1256.00
2023-04-27T07:40:00.166Z,1258.00
2023-04-27T07:41:00.233Z,1263.00
2023-04-27T07:42:00.118Z,1276.00
2023-04-27T07:43:00.068Z,1269.00
2023-04-27T07:44:00.058Z,1306.00
2023-04-27T07:45:00.511Z,1333.00
2023-04-27T07:46:00.328Z,1354.00
2023-04-27T07:47:00.032Z,1345.00
2023-04-27T07:48:00.260Z,1350.00
2023-04-27T07:49:00.334Z,1375.00
2023-04-27T07:49:59.994Z,1397.00
2023-04-27T07:51:00.237Z,1424.00
2023-04-27T07:52:00.026Z,1432.00
2023-04-27T07:53:00.219Z,1461.00
2023-04-27T07:54:03.380Z,1460.00
2023-04-27T07:55:00.501Z,1461.00
2023-04-27T07:55:59.975Z,1470.00
2023-04-27T07:56:59.963Z,1478.00
2023-04-27T07:58:00.328Z,1496.00
2023-04-27T07:58:59.898Z,1535.00
2023-04-27T07:59:59.877Z,1567.00
2023-04-27T08:01:01.036Z,1556.00
2023-04-27T08:02:17.804Z,1556.00
2023-04-27T08:03:00.123Z,1558.00
2023-04-27T08:03:59.944Z,1564.00
2023-04-27T08:05:00.062Z,1574.00
2023-04-27T08:06:01.145Z,1573.00
2023-04-27T08:07:00.116Z,1596.00
2023-04-27T08:07:59.757Z,1559.00
2023-04-27T08:08:59.729Z,1561.00
2023-04-27T08:09:59.634Z,1574.00
2023-04-27T08:10:59.733Z,1588.00
2023-04-27T08:11:59.540Z,1606.00
2023-04-27T08:12:59.555Z,1593.00
2023-04-27T08:14:00.228Z,1616.00
2023-04-27T08:14:59.448Z,1626.00
2023-04-27T08:15:59.729Z,1620.00
2023-04-27T08:16:59.462Z,1619.00
2023-04-27T08:17:59.431Z,1627.00
2023-04-27T08:19:00.714Z,1634.00
2023-04-27T08:19:59.407Z,1644.00
2023-04-27T08:20:59.430Z,1632.00
2023-04-27T08:21:59.455Z,1662.00
2023-04-27T08:22:59.471Z,1650.00
2023-04-27T08:23:59.731Z,1650.00
2023-04-27T08:24:59.518Z,1661.00
2023-04-27T08:25:59.592Z,1671.00
2023-04-27T08:26:59.552Z,1672.00
2023-04-27T08:27:59.568Z,1680.00
2023-04-27T08:28:59.581Z,1688.00
2023-04-27T08:29:59.598Z,1687.00
2023-04-27T08:30:59.672Z,1705.00
2023-04-27T08:31:59.831Z,1713.00
2023-04-27T08:32:59.683Z,1713.00
2023-04-27T08:34:00.026Z,1762.00
2023-04-27T08:35:00.059Z,1760.00
2023-04-27T08:36:00.020Z,1720.00
2023-04-27T08:37:58.740Z,1740.00
2023-04-27T08:38:59.667Z,1760.00
2023-04-27T08:39:59.660Z,1773.00
2023-04-27T08:41:04.752Z,1776.00
2023-04-27T08:41:59.653Z,1779.00
2023-04-27T08:42:59.744Z,1760.00
2023-04-27T08:43:59.734Z,1560.00
2023-04-27T08:44:59.766Z,1459.00
2023-04-27T08:45:59.501Z,1405.00
2023-04-27T08:46:59.466Z,1366.00
2023-04-27T08:47:59.832Z,1344.00
2023-04-27T08:48:59.458Z,1284.00
2023-04-27T08:50:00.253Z,1276.00
2023-04-27T08:50:59.783Z,1242.00
2023-04-27T08:51:59.309Z,1204.00
2023-04-27T08:53:00.265Z,1218.00
2023-04-27T08:53:59.249Z,1184.00
2023-04-27T08:54:59.214Z,1149.00
2023-04-27T08:55:59.264Z,1135.00
2023-04-27T08:56:59.754Z,1104.00
2023-04-27T08:58:01.781Z,1079.00
2023-04-27T08:58:59.746Z,1096.00
2023-04-27T08:59:59.159Z,1067.00
2023-04-27T09:00:59.278Z,1044.00
2023-04-27T09:01:59.166Z,1045.00
2023-04-27T09:02:59.240Z,1023.00
2023-04-27T09:03:59.408Z,991.00
2023-04-27T09:04:59.211Z,964.00
2023-04-27T09:06:05.215Z,969.00
2023-04-27T09:06:58.978Z,970.00
2023-04-27T09:07:58.964Z,970.00
2023-04-27T09:08:58.970Z,954.00
2023-04-27T09:09:59.274Z,937.00
2023-04-27T09:10:59.301Z,917.00
2023-04-27T09:11:59.282Z,931.00
2023-04-27T09:12:58.830Z,922.00
2023-04-27T09:13:58.877Z,920.00
2023-04-27T09:14:59.958Z,918.00
2023-04-27T09:15:58.756Z,931.00
2023-04-27T09:16:58.765Z,914.00
2023-04-27T09:17:58.817Z,915.00
2023-04-27T09:18:58.662Z,909.00
2023-04-27T09:19:58.651Z,918.00
2023-04-27T09:20:58.791Z,908.00
2023-04-27T09:21:58.595Z,891.00
2023-04-27T09:22:58.857Z,887.00
2023-04-27T09:23:58.560Z,878.00
2023-04-27T09:24:58.540Z,878.00
2023-04-27T09:25:58.793Z,873.00
2023-04-27T09:27:00.617Z,872.00
2023-04-27T09:27:58.761Z,907.00
2023-04-27T09:28:58.449Z,901.00
2023-04-27T09:29:58.456Z,895.00
2023-04-27T09:30:58.777Z,896.00
2023-04-27T09:31:58.476Z,901.00
2023-04-27T09:32:58.427Z,895.00
2023-04-27T09:33:58.338Z,901.00
2023-04-27T09:34:58.312Z,915.00
2023-04-27T09:35:58.774Z,901.00
2023-04-27T09:36:58.279Z,914.00
2023-04-27T09:37:58.271Z,911.00
2023-04-27T09:38:58.255Z,894.00
2023-04-27T09:39:58.260Z,926.00
2023-04-27T09:40:58.768Z,913.00
2023-04-27T09:41:58.175Z,909.00
2023-04-27T09:42:58.266Z,917.00
2023-04-27T09:43:59.256Z,906.00
2023-04-27T09:44:58.095Z,914.00
2023-04-27T09:45:58.448Z,919.00
2023-04-27T09:46:58.068Z,929.00
2023-04-27T09:47:58.360Z,924.00
2023-04-27T09:48:58.006Z,923.00
2023-04-27T09:49:57.984Z,934.00
2023-04-27T09:50:58.295Z,921.00
2023-04-27T09:51:57.983Z,912.00
2023-04-27T09:52:57.947Z,919.00
2023-04-27T09:53:57.920Z,914.00
2023-04-27T09:54:58.783Z,929.00
2023-04-27T09:55:58.302Z,932.00
2023-04-27T09:56:57.834Z,931.00
2023-04-27T09:57:57.800Z,928.00
2023-04-27T09:58:58.810Z,932.00
2023-04-27T09:59:57.815Z,953.00
2023-04-27T10:00:57.904Z,947.00
2023-04-27T10:01:58.033Z,941.00
2023-04-27T10:02:57.866Z,946.00
2023-04-27T10:03:58.472Z,946.00
2023-04-27T10:04:57.865Z,936.00
2023-04-27T10:05:57.830Z,944.00
2023-04-27T10:06:58.099Z,957.00
2023-04-27T10:07:57.799Z,936.00
2023-04-27T10:08:58.349Z,936.00
2023-04-27T10:09:58.283Z,932.00
2023-04-27T10:10:57.800Z,953.00
2023-04-27T10:11:57.811Z,950.00
2023-04-27T10:12:57.809Z,944.00
2023-04-27T10:13:58.286Z,946.00
2023-04-27T10:14:58.132Z,940.00
2023-04-27T10:15:58.329Z,929.00
2023-04-27T10:16:57.842Z,935.00
2023-04-27T10:17:57.946Z,937.00
2023-04-27T10:18:58.287Z,921.00
2023-04-27T10:19:58.406Z,924.00
2023-04-27T10:20:57.853Z,921.00
2023-04-27T10:21:58.363Z,931.00
2023-04-27T10:22:57.859Z,937.00
2023-04-27T10:23:58.318Z,956.00
2023-04-27T10:24:57.870Z,957.00
2023-04-27T10:25:57.870Z,947.00
2023-04-27T10:26:57.858Z,968.00
2023-04-27T10:27:57.888Z,972.00
2023-04-27T10:28:58.291Z,969.00
2023-04-27T10:29:57.852Z,980.00
2023-04-27T10:30:57.901Z,989.00
2023-04-27T10:31:57.843Z,1010.00
2023-04-27T10:32:58.343Z,1002.00
2023-04-27T10:33:58.341Z,1014.00
2023-04-27T10:34:57.829Z,1010.00
2023-04-27T10:35:57.816Z,1012.00
2023-04-27T10:36:58.131Z,1026.00
2023-04-27T10:37:58.141Z,1032.00
2023-04-27T10:38:58.172Z,1042.00
2023-04-27T10:39:58.128Z,1052.00
2023-04-27T10:40:58.143Z,1064.00
2023-04-27T10:41:58.139Z,1047.00
2023-04-27T10:42:58.166Z,1084.00
2023-04-27T10:43:58.186Z,1073.00
2023-04-27T10:44:58.147Z,1092.00
2023-04-27T10:45:57.735Z,1091.00
2023-04-27T10:46:58.139Z,1108.00
2023-04-27T10:47:57.723Z,1101.00
2023-04-27T10:48:57.668Z,1087.00
2023-04-27T10:49:58.171Z,1109.00
2023-04-27T10:50:57.649Z,1111.00
2023-04-27T10:51:57.632Z,1117.00
2023-04-27T10:52:59.319Z,1121.00
2023-04-27T10:53:57.625Z,1122.00
2023-04-27T10:54:57.591Z,1121.00
2023-04-27T10:55:57.565Z,1126.00
2023-04-27T10:56:57.537Z,1123.00
2023-04-27T10:57:57.513Z,1135.00
2023-04-27T10:58:57.501Z,1153.00
2023-04-27T10:59:58.148Z,1154.00
2023-04-27T11:00:57.428Z,1147.00
2023-04-27T11:01:57.455Z,1160.00
2023-04-27T11:02:57.476Z,1167.00
2023-04-27T11:03:57.362Z,1164.00
2023-04-27T11:04:58.172Z,1157.00
2023-04-27T11:05:58.104Z,1176.00
2023-04-27T11:06:57.327Z,1168.00
2023-04-27T11:07:57.300Z,1183.00
2023-04-27T11:08:57.221Z,1197.00
2023-04-27T11:09:57.203Z,1179.00
2023-04-27T11:10:57.305Z,1194.00
2023-04-27T11:11:57.328Z,1203.00
2023-04-27T11:12:57.236Z,1205.00
2023-04-27T11:13:57.193Z,1168.00
2023-04-27T11:14:57.302Z,1170.00
2023-04-27T11:15:57.206Z,1193.00
2023-04-27T11:16:57.314Z,1204.00
2023-04-27T11:17:57.044Z,1210.00
2023-04-27T11:18:59.629Z,1208.00
2023-04-27T11:19:56.961Z,1233.00
2023-04-27T11:20:57.308Z,1238.00
2023-04-27T11:21:56.970Z,1244.00
2023-04-27T11:22:56.855Z,1248.00
2023-04-27T11:23:56.839Z,1236.00
2023-04-27T11:24:56.814Z,1229.00
2023-04-27T11:25:56.768Z,1246.00
2023-04-27T11:26:56.758Z,1253.00
2023-04-27T11:27:56.703Z,1248.00
2023-04-27T11:28:56.680Z,1234.00
2023-04-27T11:29:56.662Z,1236.00
2023-04-27T11:30:56.622Z,1237.00
2023-04-27T11:31:56.892Z,1248.00
2023-04-27T11:32:56.617Z,1228.00
2023-04-27T11:33:56.547Z,1234.00
2023-04-27T11:34:58.387Z,1228.00
2023-04-27T11:35:56.653Z,1229.00
2023-04-27T11:37:03.741Z,1233.00
2023-04-27T11:37:56.426Z,1230.00
2023-04-27T11:38:56.395Z,1237.00
2023-04-27T11:39:56.819Z,1247.00
2023-04-27T11:40:56.297Z,1251.00
2023-04-27T11:41:56.270Z,1264.00
2023-04-27T11:42:56.250Z,1240.00
2023-04-27T11:43:56.213Z,1251.00
2023-04-27T11:44:56.184Z,1242.00
2023-04-27T11:45:56.171Z,1260.00
2023-04-27T11:46:56.186Z,1243.00
2023-04-27T11:47:56.858Z,1255.00
2023-04-27T11:48:56.169Z,1243.00
2023-04-27T11:49:56.183Z,1244.00
2023-04-27T11:50:56.167Z,1255.00
2023-04-27T11:51:56.169Z,1241.00
2023-04-27T11:52:56.173Z,1252.00
2023-04-27T11:53:56.598Z,1267.00
2023-04-27T11:54:56.166Z,1241.00
2023-04-27T11:55:56.164Z,1263.00
2023-04-27T11:56:56.333Z,1267.00
2023-04-27T11:57:56.172Z,1268.00
2023-04-27T11:58:56.165Z,1280.00
2023-04-27T11:59:56.212Z,1255.00
2023-04-27T12:00:55.754Z,1256.00
2023-04-27T12:01:55.734Z,1280.00
2023-04-27T12:02:56.266Z,1273.00
2023-04-27T12:03:55.753Z,1262.00
2023-04-27T12:04:56.308Z,1262.00
2023-04-27T12:05:56.614Z,1283.00
2023-04-27T12:06:55.761Z,1277.00
2023-04-27T12:07:55.778Z,1265.00
2023-04-27T12:08:55.789Z,1217.00
2023-04-27T12:09:55.828Z,688.00
2023-04-27T12:10:55.832Z,562.00
2023-04-27T12:11:55.777Z,515.00
2023-04-27T12:12:55.781Z,499.00
2023-04-27T12:13:55.783Z,462.00
2023-04-27T12:14:55.805Z,483.00
2023-04-27T12:15:55.818Z,508.00
2023-04-27T12:16:56.373Z,497.00
2023-04-27T12:17:55.912Z,500.00
2023-04-27T12:18:55.903Z,504.00
2023-04-27T12:19:55.940Z,500.00
2023-04-27T12:20:55.983Z,507.00
2023-04-27T12:21:56.348Z,506.00
2023-04-27T12:22:56.088Z,498.00
2023-04-27T12:23:56.132Z,500.00
2023-04-27T12:24:56.217Z,498.00